sensor_id;sensor_type;location;lat;lon;timestamp;pressure;altitude;pressure_sealevel;temperature;humidity
70758;BME280;59316;52.964;7.102;2023-02-28T00:02:44;103173.03;;;4.77;nan
70758;BME280;59316;52.964;7.102;2023-02-28T00:08:06;103166.13;;;4.64;nan
70758;BME280;59316;52.964;7.102;2023-02-28T00:13:27;103162.69;;;4.71;nan
70758;BME280;59316;52.964;7.102;2023-02-28T00:18:48;103161.81;;;4.78;nan
70758;BME280;59316;52.964;7.102;2023-02-28T00:24:10;103151.47;;;4.94;nan
70758;BME280;59316;52.964;7.102;2023-02-28T00:29:31;103156.66;;;4.85;nan
70758;BME280;59316;52.964;7.102;2023-02-28T00:34:52;103152.31;;;4.77;nan
70758;BME280;59316;52.964;7.102;2023-02-28T00:40:13;103150.56;;;4.64;nan
70758;BME280;59316;52.964;7.102;2023-02-28T00:45:34;103147.09;;;4.60;nan
70758;BME280;59316;52.964;7.102;2023-02-28T00:50:56;103147.09;;;4.60;nan
70758;BME280;59316;52.964;7.102;2023-02-28T00:56:17;103152.28;;;4.56;nan
70758;BME280;59316;52.964;7.102;2023-02-28T01:01:40;103148.81;;;4.57;nan
70758;BME280;59316;52.964;7.102;2023-02-28T01:07:02;103162.66;;;4.59;nan
70758;BME280;59316;52.964;7.102;2023-02-28T01:12:23;103162.66;;;4.59;nan
70758;BME280;59316;52.964;7.102;2023-02-28T01:17:44;103164.38;;;4.58;nan
70758;BME280;59316;52.964;7.102;2023-02-28T01:23:05;103171.31;;;4.64;nan
70758;BME280;59316;52.964;7.102;2023-02-28T01:28:27;103166.97;;;4.65;nan
70758;BME280;59316;52.964;7.102;2023-02-28T01:33:49;103173.03;;;4.65;nan
70758;BME280;59316;52.964;7.102;2023-02-28T01:39:11;103170.41;;;4.60;nan
70758;BME280;59316;52.964;7.102;2023-02-28T01:50:20;103166.97;;;4.58;nan
70758;BME280;59316;52.964;7.102;2023-02-28T01:55:45;103166.09;;;4.53;nan
70758;BME280;59316;52.964;7.102;2023-02-28T02:01:08;103159.19;;;4.52;nan
70758;BME280;59316;52.964;7.102;2023-02-28T02:06:30;103157.41;;;4.46;nan
70758;BME280;59316;52.964;7.102;2023-02-28T02:11:55;103151.41;;;4.57;nan
70758;BME280;59316;52.964;7.102;2023-02-28T02:23:02;103150.53;;;4.47;nan
70758;BME280;59316;52.964;7.102;2023-02-28T02:34:28;103139.28;;;4.43;nan
70758;BME280;59316;52.964;7.102;2023-02-28T02:40:21;103148.78;;;4.40;nan
70758;BME280;59316;52.964;7.102;2023-02-28T02:45:45;103140.16;;;4.47;nan
70758;BME280;59316;52.964;7.102;2023-02-28T02:51:18;103143.59;;;4.43;nan
70758;BME280;59316;52.964;7.102;2023-02-28T02:56:43;103136.66;;;4.37;nan
70758;BME280;59316;52.964;7.102;2023-02-28T03:02:07;103140.13;;;4.32;nan
70758;BME280;59316;52.964;7.102;2023-02-28T03:07:30;103130.59;;;4.35;nan
70758;BME280;59316;52.964;7.102;2023-02-28T03:12:53;103133.19;;;4.31;nan
70758;BME280;59316;52.964;7.102;2023-02-28T03:24:19;103133.19;;;4.31;nan
70758;BME280;59316;52.964;7.102;2023-02-28T03:30:03;103134.88;;;4.19;nan
70758;BME280;59316;52.964;7.102;2023-02-28T03:35:36;103129.69;;;4.16;nan
70758;BME280;59316;52.964;7.102;2023-02-28T03:41:10;103135.75;;;4.27;nan
70758;BME280;59316;52.964;7.102;2023-02-28T03:46:36;103128.78;;;4.08;nan
70758;BME280;59316;52.964;7.102;2023-02-28T03:51:59;103143.44;;;4.00;nan
70758;BME280;59316;52.964;7.102;2023-02-28T04:03:11;103139.09;;;3.95;nan
70758;BME280;59316;52.964;7.102;2023-02-28T04:08:32;103130.47;;;3.96;nan
70758;BME280;59316;52.964;7.102;2023-02-28T04:13:53;103131.31;;;3.94;nan
70758;BME280;59316;52.964;7.102;2023-02-28T04:19:14;103139.09;;;3.92;nan
70758;BME280;59316;52.964;7.102;2023-02-28T04:24:35;103141.69;;;3.95;nan
70758;BME280;59316;52.964;7.102;2023-02-28T04:29:56;103137.34;;;3.88;nan
70758;BME280;59316;52.964;7.102;2023-02-28T04:35:17;103135.63;;;3.90;nan
70758;BME280;59316;52.964;7.102;2023-02-28T04:40:38;103134.78;;;3.96;nan
70758;BME280;59316;52.964;7.102;2023-02-28T04:46:01;103124.41;;;3.88;nan
70758;BME280;59316;52.964;7.102;2023-02-28T04:51:23;103139.09;;;3.95;nan
70758;BME280;59316;52.964;7.102;2023-02-28T04:56:44;103146.00;;;3.93;nan
70758;BME280;59316;52.964;7.102;2023-02-28T05:02:05;103144.25;;;3.94;nan
70758;BME280;59316;52.964;7.102;2023-02-28T05:07:26;103139.97;;;3.94;nan
70758;BME280;59316;52.964;7.102;2023-02-28T05:12:47;103144.25;;;3.92;nan
70758;BME280;59316;52.964;7.102;2023-02-28T05:18:08;103152.88;;;3.87;nan
70758;BME280;59316;52.964;7.102;2023-02-28T05:23:29;103162.38;;;3.89;nan
70758;BME280;59316;52.964;7.102;2023-02-28T05:28:50;103154.63;;;3.89;nan
70758;BME280;59316;52.964;7.102;2023-02-28T05:34:12;103155.47;;;3.90;nan
70758;BME280;59316;52.964;7.102;2023-02-28T05:39:32;103151.16;;;3.89;nan
70758;BME280;59316;52.964;7.102;2023-02-28T05:44:54;103152.88;;;3.90;nan
70758;BME280;59316;52.964;7.102;2023-02-28T05:50:14;103157.16;;;3.85;nan
70758;BME280;59316;52.964;7.102;2023-02-28T05:55:36;103155.44;;;3.84;nan
70758;BME280;59316;52.964;7.102;2023-02-28T06:00:57;103142.53;;;3.88;nan
70758;BME280;59316;52.964;7.102;2023-02-28T06:06:19;103147.59;;;3.71;nan
70758;BME280;59316;52.964;7.102;2023-02-28T06:11:41;103171.78;;;3.75;nan
70758;BME280;59316;52.964;7.102;2023-02-28T06:17:02;103169.19;;;3.76;nan
70758;BME280;59316;52.964;7.102;2023-02-28T06:22:24;103159.69;;;3.74;nan
70758;BME280;59316;52.964;7.102;2023-02-28T06:27:45;103160.56;;;3.77;nan
70758;BME280;59316;52.964;7.102;2023-02-28T06:33:06;103164.09;;;3.87;nan
70758;BME280;59316;52.964;7.102;2023-02-28T06:38:27;103177.84;;;3.80;nan
70758;BME280;59316;52.964;7.102;2023-02-28T06:43:48;103176.19;;;3.87;nan
70758;BME280;59316;52.964;7.102;2023-02-28T06:49:09;103186.50;;;3.84;nan
70758;BME280;59316;52.964;7.102;2023-02-28T06:54:31;103190.00;;;3.93;nan
70758;BME280;59316;52.964;7.102;2023-02-28T06:59:52;103205.53;;;3.92;nan
70758;BME280;59316;52.964;7.102;2023-02-28T07:05:13;103204.56;;;3.77;nan
70758;BME280;59316;52.964;7.102;2023-02-28T07:10:36;103210.59;;;3.76;nan
70758;BME280;59316;52.964;7.102;2023-02-28T07:15:59;103214.16;;;3.89;nan
70758;BME280;59316;52.964;7.102;2023-02-28T07:21:22;103230.56;;;3.91;nan
70758;BME280;59316;52.964;7.102;2023-02-28T07:26:43;103229.66;;;3.86;nan
70758;BME280;59316;52.964;7.102;2023-02-28T07:32:04;103238.22;;;3.77;nan
70758;BME280;59316;52.964;7.102;2023-02-28T07:37:25;103245.81;;;3.51;nan
70758;BME280;59316;52.964;7.102;2023-02-28T07:42:46;103250.00;;;3.40;nan
70758;BME280;59316;52.964;7.102;2023-02-28T07:48:09;103237.91;;;3.36;nan
70758;BME280;59316;52.964;7.102;2023-02-28T07:53:30;103247.41;;;3.38;nan
70758;BME280;59316;52.964;7.102;2023-02-28T07:58:51;103248.38;;;3.51;nan
70758;BME280;59316;52.964;7.102;2023-02-28T08:04:13;103244.34;;;3.86;nan
70758;BME280;59316;52.964;7.102;2023-02-28T08:09:34;103244.63;;;4.38;nan
70758;BME280;59316;52.964;7.102;2023-02-28T08:14:55;103243.94;;;4.86;nan
70758;BME280;59316;52.964;7.102;2023-02-28T08:20:16;103254.41;;;5.20;nan
70758;BME280;59316;52.964;7.102;2023-02-28T08:25:37;103240.50;;;6.09;nan
70758;BME280;59316;52.964;7.102;2023-02-28T08:30:58;103237.81;;;6.35;nan
70758;BME280;59316;52.964;7.102;2023-02-28T08:36:19;103231.81;;;6.22;nan
70758;BME280;59316;52.964;7.102;2023-02-28T08:41:41;103229.25;;;6.08;nan
70758;BME280;59316;52.964;7.102;2023-02-28T08:47:03;103230.16;;;5.86;nan
70758;BME280;59316;52.964;7.102;2023-02-28T08:52:24;103230.94;;;6.25;nan
70758;BME280;59316;52.964;7.102;2023-02-28T08:57:45;103238.44;;;6.91;nan
70758;BME280;59316;52.964;7.102;2023-02-28T09:03:06;103219.84;;;7.43;nan
70758;BME280;59316;52.964;7.102;2023-02-28T09:08:27;103232.00;;;7.44;nan
70758;BME280;59316;52.964;7.102;2023-02-28T09:13:49;103243.56;;;7.05;nan
70758;BME280;59316;52.964;7.102;2023-02-28T09:19:11;103242.78;;;6.88;nan
70758;BME280;59316;52.964;7.102;2023-02-28T09:24:33;103236.72;;;7.93;nan
70758;BME280;59316;52.964;7.102;2023-02-28T09:29:54;103237.22;;;7.39;nan
70758;BME280;59316;52.964;7.102;2023-02-28T09:35:15;103239.41;;;6.72;nan
70758;BME280;59316;52.964;7.102;2023-02-28T09:40:46;103241.97;;;6.76;nan
70758;BME280;59316;52.964;7.102;2023-02-28T09:57:33;103224.72;;;9.71;nan
70758;BME280;59316;52.964;7.102;2023-02-28T10:09:04;103234.94;;;10.29;nan
70758;BME280;59316;52.964;7.102;2023-02-28T10:14:29;103244.91;;;9.62;nan
70758;BME280;59316;52.964;7.102;2023-02-28T10:19:56;103239.59;;;9.13;nan
70758;BME280;59316;52.964;7.102;2023-02-28T10:25:22;103249.81;;;9.30;nan
70758;BME280;59316;52.964;7.102;2023-02-28T10:30:47;103225.81;;;10.90;nan
70758;BME280;59316;52.964;7.102;2023-02-28T10:36:17;103223.03;;;11.35;nan
70758;BME280;59316;52.964;7.102;2023-02-28T10:41:42;103233.13;;;11.83;nan
70758;BME280;59316;52.964;7.102;2023-02-28T10:47:03;103232.75;;;13.69;nan
70758;BME280;59316;52.964;7.102;2023-02-28T10:52:32;103218.81;;;14.40;nan
70758;BME280;59316;52.964;7.102;2023-02-28T10:57:57;103217.81;;;13.95;nan
70758;BME280;59316;52.964;7.102;2023-02-28T11:03:28;103220.91;;;13.30;nan
70758;BME280;59316;52.964;7.102;2023-02-28T11:09:35;103210.22;;;14.11;nan
70758;BME280;59316;52.964;7.102;2023-02-28T11:14:49;103220.09;;;14.52;nan
70758;BME280;59316;52.964;7.102;2023-02-28T11:20:18;103215.66;;;13.56;nan
70758;BME280;59316;52.964;7.102;2023-02-28T11:25:46;103216.13;;;11.65;nan
70758;BME280;59316;52.964;7.102;2023-02-28T11:36:33;103209.53;;;11.83;nan
70758;BME280;59316;52.964;7.102;2023-02-28T11:53:48;103192.38;;;12.35;nan
70758;BME280;59316;52.964;7.102;2023-02-28T11:59:44;103185.50;;;11.99;nan
70758;BME280;59316;52.964;7.102;2023-02-28T12:05:29;103181.66;;;12.71;nan
70758;BME280;59316;52.964;7.102;2023-02-28T12:16:35;103180.13;;;13.19;nan
70758;BME280;59316;52.964;7.102;2023-02-28T12:27:56;103160.72;;;13.99;nan
70758;BME280;59316;52.964;7.102;2023-02-28T12:33:18;103138.06;;;14.40;nan
70758;BME280;59316;52.964;7.102;2023-02-28T12:38:44;103142.59;;;14.37;nan
70758;BME280;59316;52.964;7.102;2023-02-28T12:49:50;103136.06;;;13.76;nan
70758;BME280;59316;52.964;7.102;2023-02-28T12:55:33;103125.88;;;14.16;nan
70758;BME280;59316;52.964;7.102;2023-02-28T13:06:34;103114.00;;;13.80;nan
70758;BME280;59316;52.964;7.102;2023-02-28T13:12:12;103105.28;;;13.79;nan
70758;BME280;59316;52.964;7.102;2023-02-28T13:17:34;103100.88;;;13.56;nan
70758;BME280;59316;52.964;7.102;2023-02-28T13:22:55;103090.66;;;14.40;nan
70758;BME280;59316;52.964;7.102;2023-02-28T13:28:56;103087.81;;;14.24;nan
70758;BME280;59316;52.964;7.102;2023-02-28T13:34:14;103091.28;;;14.25;nan
70758;BME280;59316;52.964;7.102;2023-02-28T14:07:49;103075.22;;;13.38;nan
70758;BME280;59316;52.964;7.102;2023-02-28T14:18:58;103075.56;;;13.28;nan
70758;BME280;59316;52.964;7.102;2023-02-28T14:30:15;103081.19;;;13.18;nan
70758;BME280;59316;52.964;7.102;2023-02-28T14:36:01;103075.28;;;13.36;nan
70758;BME280;59316;52.964;7.102;2023-02-28T14:41:32;103083.25;;;12.82;nan
70758;BME280;59316;52.964;7.102;2023-02-28T14:46:56;103078.47;;;13.21;nan
70758;BME280;59316;52.964;7.102;2023-02-28T14:57:41;103070.28;;;12.78;nan
70758;BME280;59316;52.964;7.102;2023-02-28T15:14:37;103069.63;;;10.56;nan
70758;BME280;59316;52.964;7.102;2023-02-28T15:19:59;103083.94;;;9.56;nan
70758;BME280;59316;52.964;7.102;2023-02-28T15:25:21;103093.97;;;8.81;nan
70758;BME280;59316;52.964;7.102;2023-02-28T15:30:50;103089.75;;;8.11;nan
70758;BME280;59316;52.964;7.102;2023-02-28T15:36:15;103095.31;;;7.80;nan
70758;BME280;59316;52.964;7.102;2023-02-28T15:41:37;103092.13;;;7.56;nan
70758;BME280;59316;52.964;7.102;2023-02-28T15:46:59;103101.06;;;7.29;nan
70758;BME280;59316;52.964;7.102;2023-02-28T15:52:37;103092.53;;;7.15;nan
70758;BME280;59316;52.964;7.102;2023-02-28T16:40:59;63551.88;;;-143.20;100.00
70758;BME280;59316;52.964;7.102;2023-02-28T16:46:30;63551.88;;;-143.20;100.00
70758;BME280;59316;52.964;7.102;2023-02-28T16:51:55;63551.88;;;-143.20;100.00
70758;BME280;59316;52.964;7.102;2023-02-28T16:57:20;63551.88;;;-143.20;100.00
70758;BME280;59316;52.964;7.102;2023-02-28T17:02:42;63551.88;;;-143.20;100.00
70758;BME280;59316;52.964;7.102;2023-02-28T17:08:03;63551.88;;;-143.20;100.00
70758;BME280;59316;52.964;7.102;2023-02-28T17:13:24;63551.88;;;-143.20;100.00
70758;BME280;59316;52.964;7.102;2023-02-28T17:18:45;63551.88;;;-143.20;100.00
70758;BME280;59316;52.964;7.102;2023-02-28T17:24:06;63551.88;;;-143.20;100.00
70758;BME280;59316;52.964;7.102;2023-02-28T17:29:28;63551.88;;;-143.20;100.00
70758;BME280;59316;52.964;7.102;2023-02-28T17:34:49;63551.88;;;-143.20;100.00
70758;BME280;59316;52.964;7.102;2023-02-28T17:40:12;63551.88;;;-143.20;100.00
70758;BME280;59316;52.964;7.102;2023-02-28T17:45:35;63551.88;;;-143.20;100.00
70758;BME280;59316;52.964;7.102;2023-02-28T17:50:56;63551.88;;;-143.20;100.00
70758;BME280;59316;52.964;7.102;2023-02-28T17:56:18;63551.88;;;-143.20;100.00
70758;BME280;59316;52.964;7.102;2023-02-28T18:01:41;63551.88;;;-143.20;100.00
70758;BME280;59316;52.964;7.102;2023-02-28T18:07:02;63551.88;;;-143.20;100.00
70758;BME280;59316;52.964;7.102;2023-02-28T18:17:44;63551.88;;;-143.20;100.00
70758;BME280;59316;52.964;7.102;2023-02-28T18:23:05;63551.88;;;-143.20;100.00
70758;BME280;59316;52.964;7.102;2023-02-28T18:28:26;63551.88;;;-143.20;100.00
70758;BME280;59316;52.964;7.102;2023-02-28T18:33:47;63551.88;;;-143.20;100.00
70758;BME280;59316;52.964;7.102;2023-02-28T18:39:09;63551.88;;;-143.20;100.00
70758;BME280;59316;52.964;7.102;2023-02-28T18:44:30;63551.88;;;-143.20;100.00
70758;BME280;59316;52.964;7.102;2023-02-28T18:49:51;63551.88;;;-143.20;100.00
70758;BME280;59316;52.964;7.102;2023-02-28T18:55:12;63551.88;;;-143.20;100.00
70758;BME280;59316;52.964;7.102;2023-02-28T19:00:34;63551.88;;;-143.20;100.00
70758;BME280;59316;52.964;7.102;2023-02-28T19:05:56;63551.88;;;-143.20;100.00
70758;BME280;59316;52.964;7.102;2023-02-28T19:11:18;63551.88;;;-143.20;100.00
70758;BME280;59316;52.964;7.102;2023-02-28T19:16:40;63551.88;;;-143.20;100.00
70758;BME280;59316;52.964;7.102;2023-02-28T19:22:01;63551.88;;;-143.20;100.00
70758;BME280;59316;52.964;7.102;2023-02-28T19:27:22;63551.88;;;-143.20;100.00
70758;BME280;59316;52.964;7.102;2023-02-28T19:32:43;63551.88;;;-143.20;100.00
70758;BME280;59316;52.964;7.102;2023-02-28T19:38:04;63551.88;;;-143.20;100.00
70758;BME280;59316;52.964;7.102;2023-02-28T19:43:25;63551.88;;;-143.20;100.00
70758;BME280;59316;52.964;7.102;2023-02-28T19:48:46;63551.88;;;-143.20;100.00
70758;BME280;59316;52.964;7.102;2023-02-28T19:54:07;63551.88;;;-143.20;100.00
70758;BME280;59316;52.964;7.102;2023-02-28T19:59:28;63551.88;;;-143.20;100.00
70758;BME280;59316;52.964;7.102;2023-02-28T20:04:58;63551.88;;;-143.20;100.00
70758;BME280;59316;52.964;7.102;2023-02-28T20:10:20;63551.88;;;-143.20;100.00
70758;BME280;59316;52.964;7.102;2023-02-28T20:15:41;63551.88;;;-143.20;100.00
70758;BME280;59316;52.964;7.102;2023-02-28T20:21:02;63551.88;;;-143.20;100.00
70758;BME280;59316;52.964;7.102;2023-02-28T20:26:24;63551.88;;;-143.20;100.00
70758;BME280;59316;52.964;7.102;2023-02-28T20:31:44;63551.88;;;-143.20;100.00
70758;BME280;59316;52.964;7.102;2023-02-28T20:37:06;63551.88;;;-143.20;100.00
70758;BME280;59316;52.964;7.102;2023-02-28T20:42:26;63551.88;;;-143.20;100.00
70758;BME280;59316;52.964;7.102;2023-02-28T20:47:48;63551.88;;;-143.20;100.00
70758;BME280;59316;52.964;7.102;2023-02-28T20:53:10;63551.88;;;-143.20;100.00
70758;BME280;59316;52.964;7.102;2023-02-28T20:58:33;63551.88;;;-143.20;100.00
70758;BME280;59316;52.964;7.102;2023-02-28T21:03:57;63551.88;;;-143.20;100.00
70758;BME280;59316;52.964;7.102;2023-02-28T21:09:22;63551.88;;;-143.20;100.00
70758;BME280;59316;52.964;7.102;2023-02-28T21:14:43;63551.88;;;-143.20;100.00
70758;BME280;59316;52.964;7.102;2023-02-28T21:20:04;63551.88;;;-143.20;100.00
70758;BME280;59316;52.964;7.102;2023-02-28T21:25:26;63551.88;;;-143.20;100.00
70758;BME280;59316;52.964;7.102;2023-02-28T21:30:46;63551.88;;;-143.20;100.00
70758;BME280;59316;52.964;7.102;2023-02-28T23:23:20;63551.88;;;-143.20;100.00
70758;BME280;59316;52.964;7.102;2023-02-28T23:34:03;63551.88;;;-143.20;100.00
70758;BME280;59316;52.964;7.102;2023-02-28T23:39:24;63551.88;;;-143.20;100.00
70758;BME280;59316;52.964;7.102;2023-02-28T23:44:46;63551.88;;;-143.20;100.00
70758;BME280;59316;52.964;7.102;2023-02-28T23:50:07;63551.88;;;-143.20;100.00
70758;BME280;59316;52.964;7.102;2023-02-28T23:55:29;63551.88;;;-143.20;100.00
